Time;durP1;ratioP1;P1;durP2;ratioP2;P2;SDS_P1;SDS_P2;PMS_P1;PMS_P2;Temp;Humidity;BMP_temperature;BMP_pressure;BME280_temperature;BME280_humidity;BME280_pressure;Samples;Min_cycle;Max_cycle;Signal;HPM_P1;HPM_P2
2021/08/28 00:00:20;;;;;;;12.30;10.40;;;;;;;14.97;81.26;99218.53;115466;1207;22363;-52
2021/08/28 00:02:48;;;;;;;11.20;9.90;;;;;;;15.01;81.58;99213.42;115333;1202;138596;-53
2021/08/28 00:05:17;;;;;;;11.90;9.40;;;;;;;15.07;81.84;99214.78;115477;1213;22293;-52
2021/08/28 00:07:45;;;;;;;11.80;9.90;;;;;;;15.13;82.00;99213.23;115458;1201;22506;-52
2021/08/28 00:10:13;;;;;;;12.30;9.70;;;;;;;15.19;82.02;99213.02;115331;1207;137811;-52
2021/08/28 00:12:41;;;;;;;11.00;9.50;;;;;;;15.27;82.01;99216.94;115446;1206;22332;-52
2021/08/28 00:15:09;;;;;;;11.00;9.90;;;;;;;15.33;81.91;99214.63;115275;1202;137904;-53
2021/08/28 00:17:39;;;;;;;12.00;9.80;;;;;;;15.36;81.95;99211.90;115448;1207;22383;-53
2021/08/28 00:20:09;;;;;;;12.10;9.80;;;;;;;15.42;81.74;99210.77;115347;1202;139026;-53
2021/08/28 00:22:37;;;;;;;13.00;9.80;;;;;;;15.46;81.74;99212.13;115449;1206;22287;-52
2021/08/28 00:25:06;;;;;;;11.70;10.00;;;;;;;15.50;81.46;99211.02;115494;1206;23193;-52
2021/08/28 00:27:34;;;;;;;10.80;9.60;;;;;;;15.55;81.45;99214.39;115360;1205;138126;-52
2021/08/28 00:30:05;;;;;;;12.30;9.30;;;;;;;15.59;81.27;99213.40;115324;1207;22315;-51
2021/08/28 00:32:33;;;;;;;11.20;9.80;;;;;;;15.63;81.05;99213.77;115313;1202;138195;-52
2021/08/28 00:35:02;;;;;;;15.40;10.00;;;;;;;15.66;80.79;99211.04;115479;1207;22328;-52
2021/08/28 00:37:30;;;;;;;12.40;10.10;;;;;;;15.69;80.53;99210.19;115372;1208;22299;-52
2021/08/28 00:39:58;;;;;;;13.30;9.50;;;;;;;15.71;80.15;99203.27;113730;1203;137998;-57
2021/08/28 00:42:26;;;;;;;11.00;9.70;;;;;;;15.74;79.93;99203.64;111154;1213;22527;-57
2021/08/28 00:44:55;;;;;;;13.70;9.60;;;;;;;15.77;79.64;99209.64;110987;1203;138924;-57
2021/08/28 00:47:25;;;;;;;15.20;9.40;;;;;;;15.79;79.44;99207.74;115450;1208;22412;-57
2021/08/28 00:49:53;;;;;;;11.20;9.00;;;;;;;15.82;79.11;99195.18;115377;1208;22321;-57
2021/08/28 00:52:21;;;;;;;13.90;9.40;;;;;;;15.82;78.90;99183.75;115342;1201;138020;-57
2021/08/28 00:54:50;;;;;;;12.70;9.30;;;;;;;15.82;78.63;99167.48;115367;1208;22362;-57
2021/08/28 00:57:20;;;;;;;11.90;9.00;;;;;;;15.81;78.52;99172.45;115328;1207;137830;-57
2021/08/28 00:59:48;;;;;;;14.20;8.90;;;;;;;15.82;78.42;99185.63;115400;1207;22163;-58
2021/08/28 01:02:16;;;;;;;14.20;9.70;;;;;;;15.84;78.29;99198.23;115321;1206;138023;-57
2021/08/28 01:04:59;;;;;;;10.40;8.90;;;;;;;15.86;78.28;99201.10;115386;1207;22290;-57
2021/08/28 01:07:34;;;;;;;13.60;9.50;;;;;;;15.88;78.20;99200.60;115266;1208;22404;-58
2021/08/28 01:10:37;;;;;;;12.20;9.60;;;;;;;15.88;78.12;99189.84;115109;1208;137725;-57
2021/08/28 01:13:46;;;;;;;12.50;9.70;;;;;;;15.84;78.14;99178.00;115379;1213;23499;-58
2021/08/28 01:16:15;;;;;;;11.10;9.90;;;;;;;15.81;78.20;99174.91;115308;1204;138474;-57
2021/08/28 01:18:45;;;;;;;14.30;9.70;;;;;;;15.80;78.20;99175.64;115357;1208;22375;-57
2021/08/28 01:21:25;;;;;;;10.50;9.40;;;;;;;15.80;78.24;99180.55;115186;1205;139447;-57
2021/08/28 01:24:22;;;;;;;11.30;8.60;;;;;;;15.80;78.19;99178.39;115401;1213;22346;-58
2021/08/28 01:27:13;;;;;;;12.70;10.00;;;;;;;15.80;78.03;99174.94;115272;1205;138058;-58
2021/08/28 01:29:43;;;;;;;11.50;9.40;;;;;;;15.80;77.99;99176.63;115303;1213;22362;-57
2021/08/28 01:32:12;;;;;;;13.10;9.50;;;;;;;15.80;78.02;99181.69;115306;1213;22366;-57
2021/08/28 01:34:41;;;;;;;10.90;9.40;;;;;;;15.80;77.96;99189.27;115247;1202;137649;-57
2021/08/28 01:37:11;;;;;;;16.30;10.10;;;;;;;15.80;77.95;99198.45;115381;1208;22362;-57
2021/08/28 01:40:04;;;;;;;12.00;10.30;;;;;;;15.80;77.86;99211.35;113642;1203;138609;-57
2021/08/28 01:42:39;;;;;;;12.10;9.50;;;;;;;15.82;77.83;99214.41;115398;1207;22283;-57
2021/08/28 01:45:11;;;;;;;16.80;10.30;;;;;;;15.81;77.98;99212.94;115277;1203;138896;-57
2021/08/28 01:47:41;;;;;;;13.40;9.60;;;;;;;15.83;77.91;99212.91;115362;1208;22365;-57
2021/08/28 01:50:10;;;;;;;13.80;10.00;;;;;;;15.83;77.91;99207.03;115410;1207;22335;-57
2021/08/28 01:52:39;;;;;;;13.00;9.40;;;;;;;15.82;77.80;99201.55;115298;1201;138349;-57
2021/08/28 01:55:08;;;;;;;12.10;9.30;;;;;;;15.81;77.78;99194.37;115296;1208;23204;-56
2021/08/28 01:57:44;;;;;;;11.20;8.40;;;;;;;15.80;77.75;99184.49;115276;1205;139819;-57
2021/08/28 02:00:50;;;;;;;12.20;9.30;;;;;;;15.80;77.80;99180.64;115303;1208;22404;-57
2021/08/28 02:07:11;;;;;;;15.50;9.50;;;;;;;15.81;77.95;99168.15;110141;1221;544888;-58
2021/08/28 02:10:07;;;;;;;13.40;8.80;;;;;;;15.79;78.13;99170.00;111111;1205;138185;-58
2021/08/28 02:12:42;;;;;;;14.30;9.40;;;;;;;15.79;78.48;99162.98;111099;1209;24905;-58
2021/08/28 02:15:38;;;;;;;10.30;9.00;;;;;;;15.77;78.68;99160.98;115144;1206;137318;-59
2021/08/28 02:18:18;;;;;;;13.60;9.20;;;;;;;15.76;78.65;99159.50;115161;1212;22269;-59
2021/08/28 02:21:03;;;;;;;10.00;8.90;;;;;;;15.76;78.54;99163.89;115121;1211;137440;-60
2021/08/28 02:23:39;;;;;;;11.90;9.10;;;;;;;15.75;78.44;99158.80;115292;1209;22339;-59
2021/08/28 02:26:25;;;;;;;9.90;8.40;;;;;;;15.75;78.35;99153.91;115017;1205;137620;-59
2021/08/28 02:28:59;;;;;;;10.40;8.30;;;;;;;15.76;78.15;99149.17;115250;1212;22343;-59
2021/08/28 02:31:32;;;;;;;12.20;9.10;;;;;;;15.77;77.97;99146.69;115303;1211;22297;-59
2021/08/28 02:34:04;;;;;;;17.00;10.60;;;;;;;15.75;77.87;99135.23;115148;1205;137498;-59
2021/08/28 02:36:32;;;;;;;15.70;13.20;;;;;;;15.74;77.60;99130.27;115188;1209;22357;-58
2021/08/28 02:39:00;;;;;;;16.60;14.50;;;;;;;15.71;77.30;99132.80;115164;1208;137751;-59
2021/08/28 02:41:38;;;;;;;20.70;15.80;;;;;;;15.70;77.53;99148.14;115216;1210;22241;-59
2021/08/28 02:44:07;;;;;;;13.40;11.20;;;;;;;15.70;77.63;99153.14;115253;1208;22142;-59
2021/08/28 02:46:35;;;;;;;11.70;10.40;;;;;;;15.71;77.50;99144.33;115139;1208;137855;-59
2021/08/28 02:49:09;;;;;;;14.10;11.90;;;;;;;15.71;77.72;99131.27;115154;1210;23314;-59
2021/08/28 02:51:38;;;;;;;15.50;11.30;;;;;;;15.69;77.89;99126.79;115079;1205;138623;-58
2021/08/28 02:54:07;;;;;;;15.90;10.10;;;;;;;15.69;78.00;99123.39;115290;1210;22199;-59
2021/08/28 02:56:35;;;;;;;11.50;10.20;;;;;;;15.67;78.25;99124.63;115103;1206;137859;-59
2021/08/28 02:59:04;;;;;;;11.20;8.60;;;;;;;15.66;78.30;99134.91;115148;1211;22326;-59
2021/08/28 03:01:32;;;;;;;8.50;7.50;;;;;;;15.67;78.32;99144.23;115152;1211;22304;-57
2021/08/28 03:04:00;;;;;;;10.90;7.00;;;;;;;15.67;78.26;99150.05;115186;1205;137455;-59
2021/08/28 03:06:41;;;;;;;9.20;6.20;;;;;;;15.69;78.11;99165.40;115333;1208;22517;-58
2021/08/28 03:09:10;;;;;;;9.60;6.90;;;;;;;15.71;78.06;99161.42;115032;1208;137314;-58
2021/08/28 03:11:39;;;;;;;8.80;6.80;;;;;;;15.73;77.96;99158.17;115274;1210;22376;-59
2021/08/28 03:14:07;;;;;;;9.40;7.00;;;;;;;15.75;77.65;99151.33;115313;1209;23395;-58
2021/08/28 03:16:37;;;;;;;10.50;7.30;;;;;;;15.76;77.59;99148.13;115136;1205;137370;-59
2021/08/28 03:19:19;;;;;;;8.40;7.30;;;;;;;15.78;77.71;99135.08;115143;1211;22333;-59
2021/08/28 03:21:47;;;;;;;10.10;7.50;;;;;;;15.80;77.71;99138.17;115077;1207;137961;-57
2021/08/28 03:24:17;;;;;;;9.30;7.00;;;;;;;15.81;78.00;99142.07;115083;1212;22329;-57
2021/08/28 03:26:56;;;;;;;10.50;7.50;;;;;;;15.83;78.01;99139.62;115049;1211;137537;-57
2021/08/28 03:29:24;;;;;;;9.80;8.10;;;;;;;15.85;78.09;99136.00;115122;1211;22317;-56
2021/08/28 03:31:53;;;;;;;9.00;7.40;;;;;;;15.87;78.16;99135.46;115073;1211;22209;-57
2021/08/28 03:34:21;;;;;;;11.60;7.10;;;;;;;15.89;78.05;99136.02;115118;1208;137546;-57
2021/08/28 03:36:50;;;;;;;18.40;6.90;;;;;;;15.89;77.96;99141.63;115108;1211;22251;-58
2021/08/28 03:39:18;;;;;;;10.10;6.70;;;;;;;15.91;77.89;99139.14;115044;1207;137681;-56
2021/08/28 03:41:47;;;;;;;9.20;6.50;;;;;;;15.93;77.90;99148.28;115271;1211;22240;-57
2021/08/28 03:44:16;;;;;;;7.40;5.90;;;;;;;15.94;77.89;99148.75;115229;1209;23119;-57
2021/08/28 03:46:46;;;;;;;8.10;5.80;;;;;;;15.96;77.96;99153.23;115086;1207;137041;-57
2021/08/28 03:49:15;;;;;;;10.80;6.50;;;;;;;15.98;77.87;99155.08;115239;1211;22315;-57
2021/08/28 03:51:44;;;;;;;8.10;5.30;;;;;;;15.99;77.94;99155.98;115115;1205;137974;-56
2021/08/28 03:54:13;;;;;;;7.00;6.30;;;;;;;15.99;77.74;99158.30;115162;1209;24531;-57
2021/08/28 03:56:46;;;;;;;8.00;6.00;;;;;;;16.00;77.81;99158.99;114942;1209;138618;-56
2021/08/28 03:59:15;;;;;;;7.00;5.80;;;;;;;16.00;77.82;99153.44;115276;1209;22954;-57
2021/08/28 04:01:44;;;;;;;9.20;5.80;;;;;;;16.00;77.82;99158.66;115164;1211;23185;-57
2021/08/28 04:04:20;;;;;;;8.00;6.50;;;;;;;16.00;78.08;99165.42;115131;1207;137322;-58
2021/08/28 04:06:58;;;;;;;9.30;7.00;;;;;;;15.98;78.42;99173.32;115240;1211;22345;-56
2021/08/28 04:09:26;;;;;;;7.00;6.20;;;;;;;15.96;78.70;99169.17;115043;1206;137567;-59
2021/08/28 04:11:55;;;;;;;7.60;6.70;;;;;;;15.93;78.99;99170.31;115247;1211;23203;-58
2021/08/28 04:14:23;;;;;;;6.80;5.70;;;;;;;15.90;79.24;99169.47;115077;1205;137929;-59
2021/08/28 04:16:52;;;;;;;7.60;6.30;;;;;;;15.88;79.31;99178.90;115217;1211;22253;-59
2021/08/28 04:19:20;;;;;;;6.50;5.30;;;;;;;15.86;79.34;99186.91;115363;1209;22199;-59
2021/08/28 04:21:55;;;;;;;7.90;6.10;;;;;;;15.84;79.37;99181.36;115046;1208;138938;-59
2021/08/28 04:24:46;;;;;;;6.10;5.40;;;;;;;15.82;79.44;99175.19;115087;1212;22348;-59
2021/08/28 04:27:37;;;;;;;6.80;6.00;;;;;;;15.79;79.44;99169.77;115184;1205;137337;-59
2021/08/28 04:30:06;;;;;;;7.20;5.80;;;;;;;15.78;79.44;99162.16;115281;1211;22364;-59
2021/08/28 04:32:39;;;;;;;7.20;5.10;;;;;;;15.76;79.38;99159.39;115151;1205;138088;-59
2021/08/28 04:35:08;;;;;;;9.70;6.00;;;;;;;15.75;79.33;99159.73;115305;1209;22339;-58
2021/08/28 04:37:37;;;;;;;9.20;6.60;;;;;;;15.75;79.34;99170.67;115289;1211;22981;-59
2021/08/28 04:40:05;;;;;;;7.60;5.20;;;;;;;15.75;79.37;99177.75;114942;1208;137524;-56
2021/08/28 04:42:33;;;;;;;7.40;5.50;;;;;;;15.76;79.47;99175.92;115321;1208;23345;-57
2021/08/28 04:45:03;;;;;;;5.60;5.10;;;;;;;15.79;79.35;99175.45;115138;1207;138123;-56
2021/08/28 04:47:36;;;;;;;5.90;5.10;;;;;;;15.80;79.26;99170.15;115174;1211;23586;-57
2021/08/28 04:50:04;;;;;;;8.10;6.10;;;;;;;15.81;78.94;99169.38;115190;1210;22373;-57
2021/08/28 04:52:38;;;;;;;6.20;5.50;;;;;;;15.80;78.85;99172.58;115144;1207;139262;-56
2021/08/28 04:55:12;;;;;;;9.90;5.20;;;;;;;15.82;78.78;99173.64;115143;1217;22311;-56
2021/08/28 04:57:40;;;;;;;6.80;4.60;;;;;;;15.85;78.92;99176.73;115040;1207;137629;-57
2021/08/28 05:00:08;;;;;;;5.60;4.70;;;;;;;15.88;78.80;99179.08;115290;1209;22371;-58
2021/08/28 05:02:57;;;;;;;6.00;4.20;;;;;;;15.91;78.76;99178.70;115145;1205;137819;-59
2021/08/28 05:05:25;;;;;;;5.50;4.80;;;;;;;15.94;78.66;99180.29;115231;1211;22347;-59
2021/08/28 05:07:54;;;;;;;5.50;4.80;;;;;;;15.97;78.55;99182.77;115269;1210;22272;-59
2021/08/28 05:10:22;;;;;;;7.60;5.30;;;;;;;16.00;78.55;99184.77;114981;1208;137418;-60
2021/08/28 05:12:51;;;;;;;5.60;5.00;;;;;;;16.03;78.58;99187.11;115034;1212;23091;-59
2021/08/28 05:15:21;;;;;;;5.70;4.60;;;;;;;16.04;78.62;99187.73;115035;1207;137826;-58
2021/08/28 05:17:52;;;;;;;5.60;4.80;;;;;;;16.05;78.38;99182.30;115058;1213;22397;-59
2021/08/28 05:20:23;;;;;;;6.80;5.30;;;;;;;16.08;78.23;99189.93;115024;1206;138550;-57
2021/08/28 05:23:10;;;;;;;5.50;4.90;;;;;;;16.09;77.90;99184.98;115179;1211;22282;-57
2021/08/28 05:25:56;;;;;;;6.80;4.80;;;;;;;16.12;77.54;99187.29;115130;1210;22341;-57
2021/08/28 05:28:24;;;;;;;8.30;5.20;;;;;;;16.13;77.46;99184.75;114791;1208;137565;-57
2021/08/28 05:30:53;;;;;;;7.90;5.10;;;;;;;16.15;77.35;99185.09;115044;1213;22299;-57
2021/08/28 05:33:22;;;;;;;6.00;4.90;;;;;;;16.15;77.16;99172.95;114869;1208;138414;-59
2021/08/28 05:35:50;;;;;;;6.30;4.80;;;;;;;16.16;76.96;99174.33;115060;1211;22341;-57
2021/08/28 05:38:29;;;;;;;8.10;5.40;;;;;;;16.19;76.90;99177.58;114843;1208;138379;-57
2021/08/28 05:40:58;;;;;;;5.60;4.70;;;;;;;16.23;76.82;99183.99;111859;1213;25008;-59
2021/08/28 05:43:26;;;;;;;8.60;5.40;;;;;;;16.23;76.72;99184.77;114985;1210;23339;-60
2021/08/28 05:46:05;;;;;;;8.20;4.90;;;;;;;16.26;76.78;99182.46;115188;1206;137465;-59
2021/08/28 05:48:43;;;;;;;6.00;4.70;;;;;;;16.32;76.51;99183.23;115181;1214;23124;-59
2021/08/28 05:51:31;;;;;;;7.60;4.80;;;;;;;16.34;76.25;99187.08;115092;1205;138501;-60
2021/08/28 05:54:00;;;;;;;11.00;5.80;;;;;;;16.37;76.04;99185.83;115250;1209;22312;-59
2021/08/28 05:56:29;;;;;;;10.70;6.00;;;;;;;16.40;75.94;99188.04;115113;1205;138084;-59
2021/08/28 05:58:57;;;;;;;8.30;5.60;;;;;;;16.43;75.63;99178.79;115252;1211;22327;-59
2021/08/28 06:01:25;;;;;;;7.50;5.60;;;;;;;16.47;75.66;99181.67;115161;1216;22340;-59
2021/08/28 06:03:54;;;;;;;7.70;6.10;;;;;;;16.51;75.68;99189.56;115076;1207;139092;-60
2021/08/28 06:06:46;;;;;;;7.70;5.60;;;;;;;16.59;75.82;99197.00;115185;1211;22327;-59
2021/08/28 06:09:32;;;;;;;7.60;5.70;;;;;;;16.66;75.91;99198.94;115088;1207;137641;-60
2021/08/28 06:12:33;;;;;;;10.50;6.50;;;;;;;16.71;75.62;99202.91;115147;1209;22297;-60
2021/08/28 06:15:20;;;;;;;7.50;6.00;;;;;;;16.73;75.47;99203.14;115190;1205;137797;-60
2021/08/28 06:17:52;;;;;;;12.20;6.00;;;;;;;16.77;75.46;99201.67;115188;1211;23219;-59
2021/08/28 06:20:21;;;;;;;11.30;6.50;;;;;;;16.81;75.39;99202.86;115551;1204;23007;-57
2021/08/28 06:22:49;;;;;;;9.00;7.00;;;;;;;16.86;75.35;99200.63;115480;1198;139053;-58
2021/08/28 06:25:18;;;;;;;9.00;6.40;;;;;;;16.89;75.58;99197.90;115532;1204;23364;-57
2021/08/28 06:27:46;;;;;;;8.30;6.40;;;;;;;16.94;75.42;99199.56;115330;1201;137651;-57
2021/08/28 06:30:16;;;;;;;7.80;6.40;;;;;;;16.97;75.43;99195.11;115474;1204;22402;-57
2021/08/28 06:32:44;;;;;;;8.50;6.00;;;;;;;17.00;75.51;99192.58;115479;1201;137976;-57
2021/08/28 06:35:13;;;;;;;8.50;6.40;;;;;;;17.04;75.56;99197.70;115471;1211;22352;-59
2021/08/28 06:37:43;;;;;;;8.40;6.10;;;;;;;17.09;75.62;99202.77;115560;1203;22945;-59
2021/08/28 06:40:30;;;;;;;10.00;7.30;;;;;;;17.13;75.88;99204.93;115421;1200;137671;-59
2021/08/28 06:43:34;;;;;;;7.50;6.60;;;;;;;17.21;75.81;99205.52;115528;1203;23613;-59
2021/08/28 06:46:28;;;;;;;8.50;6.70;;;;;;;17.27;76.03;99208.30;115479;1200;138519;-59
2021/08/28 06:49:23;;;;;;;10.30;7.00;;;;;;;17.36;75.92;99214.39;115412;1204;22246;-59
2021/08/28 06:52:11;;;;;;;7.80;7.00;;;;;;;17.45;75.80;99215.45;115405;1201;139031;-58
2021/08/28 06:54:57;;;;;;;10.60;6.70;;;;;;;17.58;75.55;99216.30;115548;1204;22309;-58
2021/08/28 06:57:45;;;;;;;13.40;6.50;;;;;;;17.70;75.40;99218.91;115399;1200;137959;-59
2021/08/28 07:00:23;;;;;;;8.40;6.30;;;;;;;17.83;75.35;99225.48;115384;1204;22795;-59
2021/08/28 07:03:10;;;;;;;7.90;6.70;;;;;;;17.94;74.54;99235.90;115454;1201;138123;-59
2021/08/28 07:05:44;;;;;;;10.60;6.80;;;;;;;18.00;74.25;99241.12;115449;1206;22377;-59
2021/08/28 07:08:23;;;;;;;9.30;6.30;;;;;;;18.02;73.75;99245.42;115318;1205;23291;-60
2021/08/28 07:10:51;;;;;;;10.30;6.40;;;;;;;18.03;73.79;99247.98;115297;1202;138892;-60
2021/08/28 07:13:20;;;;;;;10.50;6.60;;;;;;;18.03;73.49;99245.13;115434;1205;22108;-59
2021/08/28 07:15:48;;;;;;;9.90;6.90;;;;;;;18.02;73.41;99246.26;115378;1201;137729;-59
2021/08/28 07:18:18;;;;;;;9.40;7.30;;;;;;;18.02;73.46;99246.80;115415;1205;22308;-59
2021/08/28 07:20:46;;;;;;;10.10;6.70;;;;;;;18.01;73.59;99252.52;115304;1200;139031;-59
2021/08/28 07:23:17;;;;;;;7.80;6.30;;;;;;;17.99;73.49;99253.66;115493;1204;22325;-58
2021/08/28 07:25:55;;;;;;;7.80;6.60;;;;;;;17.97;73.47;99254.69;115463;1204;22798;-59
2021/08/28 07:28:23;;;;;;;7.70;6.10;;;;;;;17.96;73.47;99253.93;115312;1201;138891;-58
2021/08/28 07:31:05;;;;;;;7.70;5.20;;;;;;;17.96;73.05;99251.52;115487;1205;22314;-58
2021/08/28 07:33:35;;;;;;;5.40;4.50;;;;;;;17.97;72.92;99256.85;115331;1202;137544;-58
2021/08/28 07:36:03;;;;;;;6.40;5.10;;;;;;;17.97;72.72;99259.02;115421;1205;22191;-59
2021/08/28 07:38:31;;;;;;;6.50;4.70;;;;;;;17.97;72.43;99260.48;115345;1201;139075;-59
2021/08/28 07:41:00;;;;;;;6.20;4.30;;;;;;;17.98;72.27;99263.05;115367;1205;22332;-59
2021/08/28 07:43:29;;;;;;;10.20;4.40;;;;;;;17.99;72.18;99265.44;115464;1204;22687;-59
2021/08/28 07:46:00;;;;;;;9.10;3.70;;;;;;;18.04;72.12;99268.90;115353;1202;138236;-58
2021/08/28 07:48:32;;;;;;;10.00;3.60;;;;;;;18.11;71.57;99270.06;115478;1209;23198;-58
2021/08/28 07:51:00;;;;;;;3.40;3.00;;;;;;;18.17;70.68;99270.77;115281;1202;140720;-58
2021/08/28 07:53:29;;;;;;;4.10;3.30;;;;;;;18.26;70.96;99272.05;115582;1204;22334;-58
2021/08/28 07:56:00;;;;;;;6.30;3.50;;;;;;;18.40;71.01;99279.98;115423;1205;22233;-58
2021/08/28 07:58:28;;;;;;;4.70;3.30;;;;;;;18.52;70.54;99278.33;115388;1201;137665;-59
2021/08/28 08:00:56;;;;;;;4.00;3.20;;;;;;;18.62;69.76;99279.08;115517;1205;23486;-58
2021/08/28 08:03:25;;;;;;;8.70;3.40;;;;;;;18.68;69.32;99279.09;115269;1202;137919;-61
2021/08/28 08:06:12;;;;;;;3.80;2.80;;;;;;;18.69;68.70;99279.55;115528;1204;22337;-58
2021/08/28 08:08:55;;;;;;;4.90;3.10;;;;;;;18.68;68.32;99283.51;115398;1200;138292;-59
2021/08/28 08:11:44;;;;;;;6.20;2.80;;;;;;;18.66;68.38;99292.00;115508;1204;22285;-58
2021/08/28 08:14:31;;;;;;;6.30;3.00;;;;;;;18.66;68.80;99294.86;115344;1201;138321;-59
2021/08/28 08:17:00;;;;;;;5.00;3.00;;;;;;;18.70;69.16;99294.76;115512;1204;22405;-59
2021/08/28 08:19:51;;;;;;;4.50;2.90;;;;;;;18.80;68.96;99297.42;115469;1205;22325;-59
2021/08/28 08:22:38;;;;;;;6.80;2.40;;;;;;;18.87;68.00;99302.70;115423;1201;138037;-59
2021/08/28 08:25:17;;;;;;;3.50;2.20;;;;;;;18.89;67.15;99306.42;115443;1205;22962;-59
2021/08/28 08:28:14;;;;;;;3.80;3.00;;;;;;;18.84;66.71;99312.23;115315;1202;137855;-58
2021/08/28 08:31:01;;;;;;;4.50;2.40;;;;;;;18.81;66.91;99315.23;115561;1204;22235;-59
2021/08/28 08:33:29;;;;;;;4.90;2.40;;;;;;;18.83;67.21;99309.49;115340;1201;139152;-59
2021/08/28 08:35:58;;;;;;;3.40;2.10;;;;;;;18.87;66.90;99316.89;115488;1205;22317;-59
2021/08/28 08:38:26;;;;;;;2.10;1.80;;;;;;;18.92;66.37;99323.20;115454;1206;23341;-59
2021/08/28 08:40:54;;;;;;;5.70;2.30;;;;;;;18.95;66.07;99318.54;112358;1201;137549;-58
2021/08/28 08:43:22;;;;;;;3.80;2.30;;;;;;;18.95;65.64;99322.19;115277;1206;22389;-58
2021/08/28 08:45:50;;;;;;;3.80;2.50;;;;;;;18.94;65.63;99325.06;115348;1201;138771;-58
2021/08/28 08:48:19;;;;;;;2.90;2.10;;;;;;;18.94;65.72;99326.23;115466;1206;22331;-58
2021/08/28 08:50:47;;;;;;;4.00;1.90;;;;;;;18.97;65.73;99333.17;115281;1200;137884;-58
2021/08/28 08:53:17;;;;;;;2.70;2.40;;;;;;;18.99;65.64;99332.79;115518;1205;23464;-58
2021/08/28 08:56:01;;;;;;;3.30;2.00;;;;;;;19.02;65.73;99341.10;115476;1205;22911;-58
2021/08/28 08:58:29;;;;;;;3.40;2.10;;;;;;;19.05;65.43;99340.11;115372;1201;138110;-58
2021/08/28 09:01:03;;;;;;;3.10;2.10;;;;;;;19.08;64.93;99338.84;115401;1209;22282;-58
2021/08/28 09:03:35;;;;;;;2.60;2.10;;;;;;;19.08;64.66;99343.73;115388;1202;137673;-58
2021/08/28 09:06:06;;;;;;;5.50;2.00;;;;;;;19.04;64.35;99342.08;115484;1204;22328;-58
2021/08/28 09:08:40;;;;;;;4.00;1.90;;;;;;;18.99;64.26;99347.77;115344;1201;138753;-58
2021/08/28 09:11:30;;;;;;;2.40;2.00;;;;;;;18.93;64.44;99351.98;115446;1204;22197;-58
2021/08/28 09:14:18;;;;;;;6.90;2.70;;;;;;;18.91;64.54;99350.90;115477;1204;22374;-58
2021/08/28 09:16:46;;;;;;;3.60;1.70;;;;;;;18.89;64.90;99351.73;115392;1201;137671;-58
2021/08/28 09:19:38;;;;;;;4.20;1.90;;;;;;;18.90;64.38;99360.02;115494;1204;23161;-58
2021/08/28 09:22:07;;;;;;;2.00;1.60;;;;;;;18.91;64.13;99357.01;115386;1203;137618;-58
2021/08/28 09:24:43;;;;;;;6.40;1.70;;;;;;;18.93;63.94;99356.92;115454;1204;22383;-58
2021/08/28 09:27:11;;;;;;;2.70;2.00;;;;;;;18.95;64.01;99360.84;115406;1199;138352;-58
2021/08/28 09:29:55;;;;;;;3.70;2.00;;;;;;;18.97;63.90;99366.77;115461;1211;22345;-58
2021/08/28 09:32:23;;;;;;;4.00;1.90;;;;;;;18.98;63.83;99365.86;115436;1204;22106;-58
2021/08/28 09:34:51;;;;;;;4.20;2.10;;;;;;;18.98;63.64;99367.06;115280;1204;138508;-58
2021/08/28 09:37:19;;;;;;;2.40;1.60;;;;;;;18.99;63.77;99367.52;115509;1204;23133;-57
2021/08/28 09:39:48;;;;;;;3.60;1.90;;;;;;;19.00;63.81;99367.08;115309;1201;139207;-58
2021/08/28 09:42:20;;;;;;;3.60;2.00;;;;;;;19.00;63.61;99369.70;115575;1204;22268;-58
2021/08/28 09:44:50;;;;;;;2.00;1.80;;;;;;;19.01;63.19;99368.98;115422;1200;138422;-58
2021/08/28 09:47:22;;;;;;;2.50;1.90;;;;;;;19.01;63.19;99370.30;115667;1204;23043;-58
2021/08/28 09:49:51;;;;;;;2.70;1.70;;;;;;;19.02;63.76;99373.20;115484;1204;22324;-58
2021/08/28 09:52:24;;;;;;;2.00;1.80;;;;;;;19.04;63.40;99370.77;115597;1199;139354;-58
2021/08/28 09:54:55;;;;;;;1.90;1.70;;;;;;;19.06;63.13;99371.73;115437;1204;22279;-58
2021/08/28 09:57:28;;;;;;;2.10;1.60;;;;;;;19.06;63.26;99372.06;115466;1200;138836;-57
2021/08/28 10:00:00;;;;;;;3.70;1.80;;;;;;;19.08;62.92;99374.89;115549;1204;22313;-58
2021/08/28 10:02:28;;;;;;;3.50;1.80;;;;;;;19.08;63.20;99380.69;115513;1204;22237;-58
2021/08/28 10:04:57;;;;;;;1.50;1.40;;;;;;;19.09;63.10;99381.17;115508;1200;137434;-57
2021/08/28 10:07:27;;;;;;;3.40;2.00;;;;;;;19.08;63.26;99379.09;115557;1204;22212;-58
2021/08/28 10:10:00;;;;;;;2.10;1.70;;;;;;;19.06;63.26;99378.92;115364;1201;137839;-58
2021/08/28 10:12:51;;;;;;;1.70;1.50;;;;;;;19.05;63.45;99386.13;115431;1205;22354;-58
2021/08/28 10:15:39;;;;;;;3.00;1.60;;;;;;;19.03;62.85;99382.79;115408;1201;137913;-58
2021/08/28 10:18:07;;;;;;;1.80;1.60;;;;;;;18.97;62.91;99380.18;115512;1206;22241;-57
2021/08/28 10:20:36;;;;;;;1.70;1.60;;;;;;;18.93;63.78;99383.23;115362;1200;137958;-58
2021/08/28 10:23:05;;;;;;;2.90;2.30;;;;;;;18.95;63.79;99381.73;115431;1205;22183;-58
2021/08/28 10:25:36;;;;;;;3.30;1.70;;;;;;;18.97;63.43;99383.27;115511;1206;22322;-58
2021/08/28 10:28:06;;;;;;;2.20;1.90;;;;;;;18.98;63.17;99379.20;115338;1201;138399;-58
2021/08/28 10:30:35;;;;;;;6.70;1.70;;;;;;;19.00;63.50;99384.62;115623;1205;22336;-58
2021/08/28 10:33:03;;;;;;;2.10;1.70;;;;;;;19.05;63.33;99386.59;115461;1201;138304;-58
2021/08/28 10:35:31;;;;;;;2.90;1.90;;;;;;;19.09;62.88;99386.46;115544;1204;23045;-58
2021/08/28 10:38:00;;;;;;;2.30;1.80;;;;;;;19.14;63.10;99390.83;115561;1209;23127;-58
2021/08/28 10:40:32;;;;;;;2.20;1.80;;;;;;;19.17;63.51;99397.86;112984;1201;138747;-57
2021/08/28 10:43:05;;;;;;;2.00;1.60;;;;;;;19.23;63.37;99402.33;111243;1211;25323;-57
2021/08/28 10:45:35;;;;;;;3.00;1.70;;;;;;;19.26;62.76;99398.88;115426;1201;138958;-57
2021/08/28 10:48:26;;;;;;;1.80;1.60;;;;;;;19.29;63.09;99395.64;115499;1205;23143;-57
2021/08/28 10:50:54;;;;;;;2.90;1.90;;;;;;;19.34;63.02;99399.65;115360;1201;137907;-57
2021/08/28 10:53:24;;;;;;;2.60;2.20;;;;;;;19.38;62.95;99402.55;115478;1204;22958;-59
2021/08/28 10:55:53;;;;;;;2.50;1.90;;;;;;;19.44;62.18;99406.17;115639;1204;23319;-58
2021/08/28 10:58:22;;;;;;;2.40;1.70;;;;;;;19.48;61.82;99403.91;115260;1201;138135;-57
2021/08/28 11:00:55;;;;;;;1.80;1.60;;;;;;;19.52;61.55;99400.68;115434;1209;22910;-58
2021/08/28 11:03:34;;;;;;;2.10;1.90;;;;;;;19.55;61.94;99397.61;115432;1200;138934;-58
2021/08/28 11:06:15;;;;;;;3.80;1.80;;;;;;;19.64;61.86;99403.63;115675;1204;22301;-58
2021/08/28 11:08:54;;;;;;;1.50;1.40;;;;;;;19.72;61.56;99414.13;115291;1204;138009;-58
2021/08/28 11:11:27;;;;;;;14.10;2.10;;;;;;;19.77;60.64;99419.95;115395;1204;22389;-58
2021/08/28 11:14:06;;;;;;;6.80;2.10;;;;;;;19.78;60.34;99418.02;115464;1204;22254;-57
2021/08/28 11:16:39;;;;;;;3.60;1.70;;;;;;;19.79;60.44;99415.14;115310;1201;138038;-57
2021/08/28 11:19:10;;;;;;;5.10;2.90;;;;;;;19.80;60.59;99415.27;115467;1205;22318;-57
2021/08/28 11:21:42;;;;;;;3.20;1.80;;;;;;;19.82;60.54;99415.15;115324;1201;138654;-56
2021/08/28 11:24:14;;;;;;;2.00;1.60;;;;;;;19.83;60.21;99408.39;115406;1207;22317;-58
2021/08/28 11:26:43;;;;;;;5.70;2.00;;;;;;;19.87;60.01;99406.69;115351;1201;138347;-58
2021/08/28 11:29:24;;;;;;;5.40;2.80;;;;;;;19.89;59.49;99410.98;115435;1205;23288;-58
2021/08/28 11:32:12;;;;;;;4.10;2.20;;;;;;;19.91;59.45;99409.34;115367;1204;22307;-58
2021/08/28 11:34:41;;;;;;;4.10;1.80;;;;;;;19.95;59.39;99402.88;115293;1205;138242;-58
2021/08/28 11:37:28;;;;;;;6.70;4.60;;;;;;;19.98;59.63;99402.66;115495;1204;23169;-58
2021/08/28 11:40:00;;;;;;;5.20;3.10;;;;;;;20.04;59.47;99404.34;115302;1201;137895;-58
2021/08/28 11:42:33;;;;;;;4.40;3.70;;;;;;;20.09;59.06;99408.44;115454;1208;22357;-57
2021/08/28 11:45:02;;;;;;;5.30;1.60;;;;;;;20.14;58.82;99409.39;115355;1201;137889;-57
2021/08/28 11:47:30;;;;;;;2.40;1.70;;;;;;;20.18;58.26;99408.06;115636;1207;22161;-58
2021/08/28 11:49:59;;;;;;;2.30;1.40;;;;;;;20.21;58.12;99411.98;115725;1205;23105;-57
2021/08/28 11:52:33;;;;;;;2.10;1.30;;;;;;;20.25;58.02;99409.33;115544;1199;137789;-58